createdAt,value
2019-05-13T00:00:44.580Z,5.38
2019-05-13T00:02:20.076Z,5.25
2019-05-13T00:03:55.242Z,5.07
2019-05-13T00:05:30.263Z,5.13
2019-05-13T00:07:08.486Z,5.06
2019-05-13T00:08:44.929Z,4.95
2019-05-13T00:10:25.375Z,5.19
2019-05-13T00:12:04.619Z,5.17
2019-05-13T00:13:40.088Z,5.08
2019-05-13T00:15:15.572Z,4.97
2019-05-13T00:16:50.602Z,4.90
2019-05-13T00:18:25.604Z,5.07
2019-05-13T00:20:00.452Z,5.05
2019-05-13T00:21:36.808Z,5.07
2019-05-13T00:23:14.053Z,4.90
2019-05-13T00:24:48.590Z,5.07
2019-05-13T00:26:24.428Z,4.99
2019-05-13T00:27:59.588Z,4.88
2019-05-13T00:29:34.424Z,4.92
2019-05-13T00:31:09.415Z,4.88
2019-05-13T00:32:44.851Z,4.94
2019-05-13T00:34:19.808Z,4.87
2019-05-13T00:35:54.734Z,4.90
2019-05-13T00:37:30.016Z,4.78
2019-05-13T00:39:07.026Z,4.68
2019-05-13T00:40:44.103Z,4.76
2019-05-13T00:42:18.562Z,4.83
2019-05-13T00:43:53.554Z,4.89
2019-05-13T00:45:28.397Z,4.86
2019-05-13T00:47:04.515Z,4.78
2019-05-13T00:48:39.592Z,4.65
2019-05-13T00:50:14.670Z,4.76
2019-05-13T00:51:49.496Z,4.80
2019-05-13T00:53:24.513Z,4.75
2019-05-13T00:54:59.339Z,4.65
2019-05-13T00:56:34.694Z,4.53
2019-05-13T00:58:13.715Z,4.63
2019-05-13T00:59:48.123Z,4.66
2019-05-13T01:01:24.317Z,4.66
2019-05-13T01:03:00.370Z,4.62
2019-05-13T01:04:35.232Z,4.68
2019-05-13T01:06:10.237Z,4.62
2019-05-13T01:07:45.179Z,4.66
2019-05-13T01:09:20.232Z,4.61
2019-05-13T01:10:55.076Z,4.53
2019-05-13T01:12:30.360Z,4.51
2019-05-13T01:14:05.538Z,4.55
2019-05-13T01:15:40.594Z,4.48
2019-05-13T01:17:15.404Z,4.60
2019-05-13T01:18:50.396Z,4.52
2019-05-13T01:20:25.213Z,4.48
2019-05-13T01:22:00.321Z,4.48
2019-05-13T01:23:35.155Z,4.49
2019-05-13T01:25:10.600Z,4.46
2019-05-13T01:26:45.457Z,4.37
2019-05-13T01:28:20.522Z,4.51
2019-05-13T01:29:55.368Z,4.35
2019-05-13T01:31:30.380Z,4.32
2019-05-13T01:33:05.206Z,4.40
2019-05-13T01:34:40.213Z,4.46
2019-05-13T01:36:15.055Z,4.53
2019-05-13T01:37:50.065Z,4.41
2019-05-13T01:39:25.096Z,4.33
2019-05-13T01:41:00.121Z,4.33
2019-05-13T01:42:35.999Z,4.38
2019-05-13T01:44:11.020Z,4.39
2019-05-13T01:45:45.856Z,4.37
2019-05-13T01:47:20.894Z,4.41
2019-05-13T01:48:55.775Z,4.36
2019-05-13T01:50:33.169Z,4.51
2019-05-13T01:52:07.741Z,4.26
2019-05-13T01:53:44.055Z,4.20
2019-05-13T01:55:19.271Z,4.21
2019-05-13T01:56:54.304Z,4.26
2019-05-13T01:58:29.147Z,4.17
2019-05-13T02:00:04.872Z,4.13
2019-05-13T02:01:40.712Z,4.18
2019-05-13T02:03:15.754Z,4.09
2019-05-13T02:04:53.273Z,4.06
2019-05-13T02:06:28.359Z,4.05
2019-05-13T02:08:04.470Z,4.06
2019-05-13T02:09:39.850Z,4.17
2019-05-13T02:11:14.736Z,4.09
2019-05-13T02:12:49.728Z,4.11
2019-05-13T02:14:24.584Z,4.03
2019-05-13T02:15:59.681Z,3.97
2019-05-13T02:17:34.499Z,4.02
2019-05-13T02:19:09.503Z,3.97
2019-05-13T02:20:45.479Z,4.05
2019-05-13T02:22:20.515Z,3.95
2019-05-13T02:23:55.332Z,3.92
2019-05-13T02:25:30.348Z,3.83
2019-05-13T02:27:05.197Z,3.88
2019-05-13T02:28:40.205Z,3.82
2019-05-13T02:30:16.394Z,3.87
2019-05-13T02:31:55.779Z,3.81
2019-05-13T02:33:28.212Z,3.93
2019-05-13T02:35:03.828Z,3.86
2019-05-13T02:36:38.637Z,3.79
2019-05-13T02:38:22.799Z,3.78
2019-05-13T02:39:52.921Z,3.91
2019-05-13T02:41:27.111Z,3.81
2019-05-13T02:43:02.967Z,3.73
2019-05-13T02:44:38.224Z,3.86
2019-05-13T02:46:13.230Z,3.95
2019-05-13T02:47:48.230Z,3.90
2019-05-13T02:49:23.395Z,3.97
2019-05-13T02:50:58.503Z,3.93
2019-05-13T02:52:33.662Z,3.83
2019-05-13T02:54:08.705Z,3.89
2019-05-13T02:55:43.950Z,3.86
2019-05-13T02:57:19.158Z,3.93
2019-05-13T02:58:54.108Z,3.89
2019-05-13T03:00:32.635Z,3.79
2019-05-13T03:02:05.758Z,3.70
2019-05-13T03:03:44.152Z,3.72
2019-05-13T03:05:17.564Z,3.78
2019-05-13T03:06:52.579Z,3.72
2019-05-13T03:08:45.014Z,3.74
2019-05-13T03:10:04.738Z,3.73
2019-05-13T03:11:42.292Z,3.65
2019-05-13T03:13:16.367Z,3.67
2019-05-13T03:14:53.288Z,3.68
2019-05-13T03:16:38.219Z,3.64
2019-05-13T03:18:13.436Z,3.69
2019-05-13T03:19:48.183Z,3.72
2019-05-13T03:21:23.606Z,3.82
2019-05-13T03:22:58.299Z,3.88
2019-05-13T03:24:33.554Z,3.76
2019-05-13T03:26:08.158Z,3.62
2019-05-13T03:27:43.361Z,3.70
2019-05-13T03:29:17.980Z,3.71
2019-05-13T03:30:56.327Z,3.74
2019-05-13T03:32:41.846Z,3.73
2019-05-13T03:34:07.652Z,3.71
2019-05-13T03:35:45.535Z,3.65
2019-05-13T03:37:25.343Z,3.66
2019-05-13T03:39:05.786Z,3.67
2019-05-13T03:40:34.767Z,3.63
2019-05-13T03:42:12.393Z,3.77
2019-05-13T03:43:47.627Z,3.83
2019-05-13T03:45:24.965Z,3.85
2019-05-13T03:47:03.423Z,3.91
2019-05-13T03:48:42.831Z,3.96
2019-05-13T03:50:17.128Z,3.93
2019-05-13T03:51:53.446Z,4.00
2019-05-13T03:53:28.764Z,3.98
2019-05-13T03:55:03.824Z,4.09
2019-05-13T03:56:42.422Z,4.08
2019-05-13T03:58:15.673Z,4.14
2019-05-13T03:59:52.548Z,4.18
2019-05-13T04:01:27.604Z,4.15
2019-05-13T04:03:03.508Z,4.16
2019-05-13T04:04:38.337Z,4.27
2019-05-13T04:06:14.227Z,4.35
2019-05-13T04:07:52.299Z,4.36
2019-05-13T04:09:31.451Z,4.38
2019-05-13T04:11:03.236Z,4.37
2019-05-13T04:12:38.632Z,4.43
2019-05-13T04:14:13.261Z,4.60
2019-05-13T04:15:48.542Z,4.52
2019-05-13T04:17:24.271Z,4.52
2019-05-13T04:19:02.630Z,4.59
2019-05-13T04:20:36.260Z,4.66
2019-05-13T04:22:12.944Z,4.80
2019-05-13T04:23:47.987Z,4.68
2019-05-13T04:25:23.771Z,4.84
2019-05-13T04:26:58.692Z,4.92
2019-05-13T04:28:33.893Z,5.12
2019-05-13T04:30:09.304Z,5.15
2019-05-13T04:31:44.575Z,5.41
2019-05-13T04:33:22.577Z,8.41
2019-05-13T04:34:58.086Z,9.69
2019-05-13T04:36:32.851Z,9.94
2019-05-13T04:38:13.048Z,11.95
2019-05-13T04:39:51.753Z,12.54
2019-05-13T04:41:23.787Z,12.62
2019-05-13T04:42:58.592Z,12.44
2019-05-13T04:44:33.886Z,14.12
2019-05-13T04:46:08.522Z,15.41
2019-05-13T04:47:43.724Z,14.82
2019-05-13T04:49:18.452Z,15.32
2019-05-13T04:50:54.034Z,16.50
2019-05-13T04:52:28.839Z,16.12
2019-05-13T04:54:04.110Z,15.97
2019-05-13T04:55:38.773Z,16.67
2019-05-13T04:57:14.065Z,16.11
2019-05-13T04:58:48.847Z,16.11
2019-05-13T05:01:04.694Z,17.07
2019-05-13T05:02:53.827Z,17.07
2019-05-13T05:04:53.874Z,19.36
2019-05-13T05:06:57.312Z,18.60
2019-05-13T05:09:07.579Z,19.97
2019-05-13T05:11:22.016Z,19.30
2019-05-13T05:13:12.922Z,16.71
2019-05-13T05:15:28.567Z,14.94
2019-05-13T05:17:42.991Z,14.56
2019-05-13T05:19:53.857Z,16.48
2019-05-13T05:21:34.347Z,13.01
2019-05-13T05:23:47.391Z,10.78
2019-05-13T05:26:03.724Z,10.78
2019-05-13T05:27:51.429Z,9.62
2019-05-13T05:30:07.649Z,9.62
2019-05-13T05:31:58.480Z,11.20
2019-05-13T05:34:14.222Z,11.20
2019-05-13T05:36:36.123Z,9.92
2019-05-13T05:38:25.270Z,10.36
2019-05-13T05:40:01.746Z,14.27
2019-05-13T05:41:36.590Z,18.12
2019-05-13T05:43:11.710Z,19.30
2019-05-13T05:44:46.798Z,22.42
2019-05-13T05:46:23.498Z,21.59
2019-05-13T05:47:58.929Z,20.58
2019-05-13T05:49:34.090Z,22.05
2019-05-13T05:51:09.009Z,23.88
2019-05-13T05:52:44.472Z,23.56
2019-05-13T05:54:21.885Z,23.23
2019-05-13T05:55:59.420Z,21.91
2019-05-13T05:57:34.720Z,24.41
2019-05-13T05:59:12.471Z,25.72
2019-05-13T06:00:51.932Z,26.18
2019-05-13T06:02:28.556Z,25.29
2019-05-13T06:04:03.553Z,26.02
2019-05-13T06:05:38.845Z,25.05
2019-05-13T06:07:14.033Z,24.21
2019-05-13T06:08:51.508Z,27.26
2019-05-13T06:10:25.718Z,27.77
2019-05-13T06:12:01.742Z,25.16
2019-05-13T06:13:37.506Z,25.29
2019-05-13T06:15:12.726Z,26.31
2019-05-13T06:16:47.589Z,27.21
2019-05-13T06:18:22.698Z,28.05
2019-05-13T06:19:57.627Z,22.81
2019-05-13T06:21:32.728Z,26.16
2019-05-13T06:23:07.655Z,28.36
2019-05-13T06:24:42.755Z,27.00
2019-05-13T06:26:18.019Z,25.66
2019-05-13T06:27:53.154Z,25.94
2019-05-13T06:29:27.988Z,26.45
2019-05-13T06:31:03.007Z,29.03
2019-05-13T06:32:37.909Z,29.99
2019-05-13T06:34:12.927Z,28.99
2019-05-13T06:35:47.762Z,27.09
2019-05-13T06:37:23.046Z,28.08
2019-05-13T06:38:57.875Z,28.02
2019-05-13T06:40:32.973Z,28.80
2019-05-13T06:42:07.870Z,28.89
2019-05-13T06:43:42.877Z,26.15
2019-05-13T06:45:17.875Z,29.79
2019-05-13T06:46:52.955Z,27.18
2019-05-13T06:48:27.833Z,27.90
2019-05-13T06:50:03.543Z,28.16
2019-05-13T06:51:38.445Z,26.54
2019-05-13T06:53:13.529Z,26.65
2019-05-13T06:54:48.368Z,28.82
2019-05-13T06:56:23.414Z,29.15
2019-05-13T06:57:58.276Z,28.34
2019-05-13T06:59:33.286Z,29.17
2019-05-13T07:01:08.274Z,28.78
2019-05-13T07:02:43.285Z,29.75
2019-05-13T07:04:18.236Z,29.94
2019-05-13T07:05:53.265Z,30.37
2019-05-13T07:07:28.119Z,29.47
2019-05-13T07:09:04.202Z,30.61
2019-05-13T07:10:41.340Z,29.13
2019-05-13T07:12:15.801Z,29.35
2019-05-13T07:13:51.610Z,29.42
2019-05-13T07:15:26.985Z,30.43
2019-05-13T07:17:02.354Z,28.30
2019-05-13T07:18:37.491Z,32.68
2019-05-13T07:20:12.403Z,27.96
2019-05-13T07:21:47.423Z,28.82
2019-05-13T07:23:22.571Z,28.28
2019-05-13T07:24:57.637Z,28.96
2019-05-13T07:26:33.239Z,28.88
2019-05-13T07:28:08.289Z,30.29
2019-05-13T07:29:43.205Z,30.36
2019-05-13T07:31:18.214Z,29.51
2019-05-13T07:32:53.052Z,30.77
2019-05-13T07:34:28.135Z,25.69
2019-05-13T07:36:03.732Z,30.00
2019-05-13T07:37:42.227Z,29.38
2019-05-13T07:39:17.635Z,29.79
2019-05-13T07:41:01.457Z,29.68
2019-05-13T07:42:36.324Z,28.81
2019-05-13T07:44:11.898Z,26.39
2019-05-13T07:45:47.238Z,27.31
2019-05-13T07:47:22.407Z,30.78
2019-05-13T07:48:57.756Z,31.06
2019-05-13T07:50:32.362Z,28.46
2019-05-13T07:52:07.665Z,29.06
2019-05-13T07:53:42.703Z,29.41
2019-05-13T07:55:19.129Z,28.36
2019-05-13T07:56:53.785Z,27.78
2019-05-13T07:58:28.981Z,28.12
2019-05-13T08:00:04.014Z,29.32
2019-05-13T08:01:41.682Z,30.34
2019-05-13T08:03:15.731Z,30.93
2019-05-13T08:04:53.135Z,27.65
2019-05-13T08:06:27.630Z,27.24
2019-05-13T08:08:02.818Z,27.54
2019-05-13T08:09:37.590Z,30.37
2019-05-13T08:11:13.018Z,28.49
2019-05-13T08:12:47.752Z,27.04
2019-05-13T08:14:22.952Z,25.92
2019-05-13T08:15:57.669Z,26.58
2019-05-13T08:17:32.929Z,27.72
2019-05-13T08:19:07.673Z,27.48
2019-05-13T08:20:42.947Z,28.82
2019-05-13T08:22:17.686Z,27.24
2019-05-13T08:23:52.953Z,28.51
2019-05-13T08:25:27.674Z,29.19
2019-05-13T08:27:02.871Z,27.92
2019-05-13T08:28:52.706Z,27.97
2019-05-13T08:30:17.942Z,25.85
2019-05-13T08:31:51.815Z,24.96
2019-05-13T08:33:28.229Z,25.50
2019-05-13T08:35:08.723Z,25.83
2019-05-13T08:36:42.752Z,25.14
2019-05-13T08:38:16.232Z,24.27
2019-05-13T08:39:52.224Z,26.45
2019-05-13T08:41:27.074Z,25.12
2019-05-13T08:43:02.500Z,22.94
2019-05-13T08:44:37.130Z,21.79
2019-05-13T08:46:12.570Z,20.38
2019-05-13T08:47:47.332Z,19.94
2019-05-13T08:49:22.630Z,19.91
2019-05-13T08:50:57.401Z,19.54
2019-05-13T08:52:32.943Z,19.62
2019-05-13T08:54:07.672Z,19.81
2019-05-13T08:55:43.183Z,19.16
2019-05-13T08:57:17.857Z,19.50
2019-05-13T08:58:53.126Z,20.17
2019-05-13T09:00:49.097Z,21.34
2019-05-13T09:02:24.303Z,19.69
2019-05-13T09:04:02.022Z,20.91
2019-05-13T09:05:36.039Z,21.77
2019-05-13T09:07:12.346Z,20.45
2019-05-13T09:08:47.632Z,20.33
2019-05-13T09:10:22.369Z,20.17
2019-05-13T09:11:57.544Z,19.49
2019-05-13T09:13:33.193Z,20.43
2019-05-13T09:15:08.685Z,20.38
2019-05-13T09:16:44.050Z,20.04
2019-05-13T09:18:22.466Z,21.22
2019-05-13T09:19:55.674Z,20.16
2019-05-13T09:21:31.841Z,20.12
2019-05-13T09:23:06.687Z,20.53
2019-05-13T09:24:42.591Z,19.41
2019-05-13T09:26:17.558Z,21.10
2019-05-13T09:27:53.894Z,21.45
2019-05-13T09:29:28.539Z,21.35
2019-05-13T09:31:03.870Z,20.06
2019-05-13T09:32:38.513Z,19.37
2019-05-13T09:34:13.717Z,20.66
2019-05-13T09:35:50.977Z,19.73
2019-05-13T09:37:25.519Z,19.88
2019-05-13T09:39:02.090Z,19.55
2019-05-13T09:40:38.414Z,19.10
2019-05-13T09:42:13.057Z,20.28
2019-05-13T09:43:48.265Z,19.29
2019-05-13T09:45:22.956Z,19.60
2019-05-13T09:46:59.414Z,18.98
2019-05-13T09:48:34.136Z,20.20
2019-05-13T09:50:25.610Z,19.28
2019-05-13T09:51:45.738Z,19.25
2019-05-13T09:53:22.250Z,19.75
2019-05-13T09:54:57.350Z,20.08
2019-05-13T09:56:32.595Z,19.87
2019-05-13T09:58:07.220Z,19.84
2019-05-13T09:59:42.507Z,21.42
2019-05-13T10:01:17.153Z,20.88
2019-05-13T10:02:52.329Z,20.76
2019-05-13T10:04:27.017Z,19.70
2019-05-13T10:06:02.722Z,19.81
2019-05-13T10:07:37.933Z,19.38
2019-05-13T10:09:13.207Z,20.81
2019-05-13T10:10:47.972Z,20.41
2019-05-13T10:12:24.602Z,19.69
2019-05-13T10:14:01.823Z,20.12
2019-05-13T10:15:36.883Z,20.56
2019-05-13T10:17:13.130Z,18.92
2019-05-13T10:18:48.515Z,19.30
2019-05-13T10:20:43.655Z,19.46
2019-05-13T10:22:18.925Z,18.49
2019-05-13T10:23:58.532Z,19.80
2019-05-13T10:25:30.636Z,19.44
2019-05-13T10:27:05.462Z,18.68
2019-05-13T10:28:42.681Z,19.50
2019-05-13T10:30:17.341Z,19.60
2019-05-13T10:31:53.966Z,18.89
2019-05-13T10:33:31.610Z,19.59
2019-05-13T10:35:06.075Z,20.01
2019-05-13T10:36:42.031Z,19.62
2019-05-13T10:38:17.671Z,19.69
2019-05-13T10:39:52.378Z,19.54
2019-05-13T10:41:27.595Z,18.92
2019-05-13T10:43:02.266Z,19.49
2019-05-13T10:44:37.473Z,19.40
2019-05-13T10:46:12.900Z,18.64
2019-05-13T10:47:48.193Z,17.71
2019-05-13T10:49:22.824Z,17.98
2019-05-13T10:50:58.208Z,18.33
2019-05-13T10:52:32.886Z,18.08
2019-05-13T10:54:08.099Z,18.44
2019-05-13T10:55:44.165Z,18.49
2019-05-13T10:57:19.385Z,18.71
2019-05-13T10:58:54.020Z,17.96
2019-05-13T11:00:47.402Z,17.14
2019-05-13T11:02:22.723Z,17.27
2019-05-13T11:03:58.023Z,17.42
2019-05-13T11:05:33.221Z,17.52
2019-05-13T11:07:08.030Z,17.52
2019-05-13T11:08:43.125Z,17.06
2019-05-13T11:10:22.290Z,17.96
2019-05-13T11:11:57.404Z,17.33
2019-05-13T11:13:50.524Z,17.22
2019-05-13T11:15:09.601Z,16.84
2019-05-13T11:16:44.525Z,16.57
2019-05-13T11:18:21.911Z,16.43
2019-05-13T11:19:56.120Z,16.78
2019-05-13T11:21:32.274Z,16.96
2019-05-13T11:23:07.521Z,16.59
2019-05-13T11:24:43.365Z,17.19
2019-05-13T11:26:18.360Z,18.08
2019-05-13T11:27:58.185Z,17.34
2019-05-13T11:29:32.339Z,16.94
2019-05-13T11:31:06.865Z,17.33
2019-05-13T11:32:42.669Z,16.65
2019-05-13T11:34:17.978Z,16.48
2019-05-13T11:35:52.833Z,16.76
2019-05-13T11:37:27.842Z,16.68
2019-05-13T11:39:03.179Z,16.79
2019-05-13T11:40:38.356Z,16.54
2019-05-13T11:42:13.789Z,16.95
2019-05-13T11:44:10.999Z,16.86
2019-05-13T11:45:26.083Z,16.59
2019-05-13T11:47:03.095Z,16.48
2019-05-13T11:48:38.015Z,16.55
2019-05-13T11:50:13.211Z,17.18
2019-05-13T11:51:51.721Z,16.90
2019-05-13T11:53:32.714Z,16.89
2019-05-13T11:55:02.935Z,17.16
2019-05-13T11:56:48.158Z,16.66
2019-05-13T11:58:15.039Z,17.12
2019-05-13T11:59:52.666Z,16.89
2019-05-13T12:01:26.682Z,16.47
2019-05-13T12:03:04.262Z,16.55
2019-05-13T12:04:38.415Z,16.68
2019-05-13T12:06:14.436Z,16.44
2019-05-13T12:07:49.251Z,16.35
2019-05-13T12:09:24.296Z,16.39
2019-05-13T12:10:59.119Z,16.41
2019-05-13T12:12:34.701Z,16.43
2019-05-13T12:14:34.674Z,16.49
2019-05-13T12:15:49.776Z,16.43
2019-05-13T12:17:22.962Z,15.94
2019-05-13T12:18:57.968Z,16.45
2019-05-13T12:20:32.963Z,16.54
2019-05-13T12:22:09.196Z,16.38
2019-05-13T12:23:43.998Z,16.58
2019-05-13T12:25:22.192Z,16.15
2019-05-13T12:26:55.729Z,16.58
2019-05-13T12:28:30.833Z,16.11
2019-05-13T12:30:05.836Z,15.54
2019-05-13T12:31:41.837Z,15.94
2019-05-13T12:33:16.663Z,15.74
2019-05-13T12:34:52.705Z,15.84
2019-05-13T12:36:27.775Z,15.67
2019-05-13T12:38:02.892Z,16.27
2019-05-13T12:39:37.790Z,16.13
2019-05-13T12:41:13.203Z,16.16
2019-05-13T12:42:48.299Z,15.97
2019-05-13T12:44:23.378Z,16.25
2019-05-13T12:45:58.455Z,16.29
2019-05-13T12:47:33.533Z,16.30
2019-05-13T12:49:08.412Z,16.18
2019-05-13T12:50:43.523Z,16.47
2019-05-13T12:52:18.322Z,16.46
2019-05-13T12:53:53.384Z,16.46
2019-05-13T12:55:28.204Z,16.07
2019-05-13T12:57:03.924Z,15.85
2019-05-13T12:58:38.943Z,16.06
2019-05-13T13:00:14.816Z,16.06
2019-05-13T13:01:51.950Z,16.07
2019-05-13T13:03:26.369Z,16.22
2019-05-13T13:05:10.490Z,16.35
2019-05-13T13:06:41.624Z,16.35
2019-05-13T13:08:29.004Z,16.15
2019-05-13T13:09:53.508Z,16.04
2019-05-13T13:11:28.052Z,16.32
2019-05-13T13:13:03.107Z,15.91
2019-05-13T13:14:39.628Z,15.91
2019-05-13T13:16:14.711Z,15.98
2019-05-13T13:17:53.699Z,15.89
2019-05-13T13:19:26.217Z,16.43
2019-05-13T13:21:06.535Z,16.29
2019-05-13T13:22:37.837Z,16.01
2019-05-13T13:24:12.685Z,16.06
2019-05-13T13:25:53.032Z,16.42
2019-05-13T13:27:57.193Z,15.61
2019-05-13T13:29:02.004Z,15.61
2019-05-13T13:30:36.928Z,15.07
2019-05-13T13:32:13.656Z,15.07
2019-05-13T13:33:48.712Z,15.11
2019-05-13T13:35:23.994Z,15.53
2019-05-13T13:36:58.849Z,15.53
2019-05-13T13:38:33.923Z,15.85
2019-05-13T13:40:09.154Z,16.22
2019-05-13T13:41:44.332Z,16.45
2019-05-13T13:43:23.538Z,16.44
2019-05-13T13:44:55.895Z,15.97
2019-05-13T13:46:38.305Z,16.06
2019-05-13T13:48:12.956Z,16.21
2019-05-13T13:49:45.238Z,15.94
2019-05-13T13:51:25.890Z,16.03
2019-05-13T13:52:56.897Z,16.29
2019-05-13T13:54:33.886Z,16.19
2019-05-13T13:56:08.747Z,16.07
2019-05-13T13:57:45.018Z,15.86
2019-05-13T13:59:24.765Z,15.90
2019-05-13T14:01:10.154Z,15.90
2019-05-13T14:02:36.979Z,15.85
2019-05-13T14:04:16.443Z,15.94
2019-05-13T14:05:47.754Z,16.03
2019-05-13T14:07:31.342Z,15.78
2019-05-13T14:09:01.428Z,15.61
2019-05-13T14:10:37.433Z,15.53
2019-05-13T14:12:12.300Z,15.97
2019-05-13T14:13:47.316Z,16.28
2019-05-13T14:15:22.298Z,16.56
2019-05-13T14:16:57.316Z,16.71
2019-05-13T14:18:32.156Z,16.42
2019-05-13T14:20:07.454Z,16.71
2019-05-13T14:21:42.286Z,16.60
2019-05-13T14:23:17.317Z,16.38
2019-05-13T14:24:52.162Z,16.18
2019-05-13T14:26:27.168Z,16.24
2019-05-13T14:28:02.251Z,16.23
2019-05-13T14:29:41.927Z,16.39
2019-05-13T14:31:14.103Z,16.16
2019-05-13T14:32:51.711Z,15.99
2019-05-13T14:34:25.709Z,16.05
2019-05-13T14:36:01.561Z,16.00
2019-05-13T14:37:36.579Z,16.20
2019-05-13T14:39:12.140Z,16.22
2019-05-13T14:40:47.285Z,15.89
2019-05-13T14:42:22.918Z,15.99
2019-05-13T14:43:58.008Z,15.61
2019-05-13T14:45:33.060Z,15.74
2019-05-13T14:47:07.956Z,15.74
2019-05-13T14:48:43.450Z,15.82
2019-05-13T14:50:21.226Z,15.82
2019-05-13T14:51:56.429Z,15.43
2019-05-13T14:53:32.322Z,15.48
2019-05-13T14:55:07.965Z,15.48
2019-05-13T14:56:42.884Z,15.60
2019-05-13T14:58:18.161Z,15.44
2019-05-13T14:59:52.971Z,15.41
2019-05-13T15:01:27.987Z,15.49
2019-05-13T15:03:03.164Z,15.66
2019-05-13T15:04:38.247Z,15.19
2019-05-13T15:06:13.175Z,15.19
2019-05-13T15:07:48.188Z,15.26
2019-05-13T15:09:23.032Z,15.32
2019-05-13T15:10:58.052Z,15.30
2019-05-13T15:12:32.888Z,15.59
2019-05-13T15:14:07.949Z,15.59
2019-05-13T15:15:42.768Z,15.44
2019-05-13T15:17:17.778Z,15.34
2019-05-13T15:18:52.966Z,15.42
2019-05-13T15:20:28.026Z,15.29
2019-05-13T15:22:03.019Z,15.42
2019-05-13T15:23:38.046Z,15.22
2019-05-13T15:25:12.968Z,15.32
2019-05-13T15:26:48.207Z,15.36
2019-05-13T15:28:23.703Z,15.46
2019-05-13T15:30:14.618Z,15.33
2019-05-13T15:31:36.365Z,15.05
2019-05-13T15:33:11.377Z,15.01
2019-05-13T15:34:46.176Z,15.16
2019-05-13T15:36:22.549Z,15.29
2019-05-13T15:37:57.620Z,15.36
2019-05-13T15:39:32.924Z,14.92
2019-05-13T15:41:07.842Z,15.03
2019-05-13T15:42:42.847Z,14.93
2019-05-13T15:44:17.682Z,15.04
2019-05-13T15:45:52.861Z,15.06
2019-05-13T15:47:27.739Z,15.45
2019-05-13T15:49:02.732Z,15.06
2019-05-13T15:50:37.606Z,15.06
2019-05-13T15:52:12.995Z,14.93
2019-05-13T15:53:47.843Z,14.85
2019-05-13T15:55:22.847Z,14.88
2019-05-13T15:56:57.667Z,14.92
2019-05-13T15:58:39.207Z,14.90
2019-05-13T16:00:12.330Z,15.04
2019-05-13T16:01:52.525Z,15.11
2019-05-13T16:03:27.911Z,15.03
2019-05-13T16:05:04.828Z,15.36
2019-05-13T16:06:41.303Z,15.40
2019-05-13T16:08:15.928Z,15.70
2019-05-13T16:09:52.625Z,15.87
2019-05-13T16:11:27.472Z,15.81
2019-05-13T16:13:02.646Z,15.39
2019-05-13T16:14:37.288Z,15.39
2019-05-13T16:16:12.518Z,15.10
2019-05-13T16:17:47.169Z,15.01
2019-05-13T16:19:22.359Z,15.08
2019-05-13T16:20:57.118Z,15.21
2019-05-13T16:22:32.379Z,15.25
2019-05-13T16:24:07.044Z,15.43
2019-05-13T16:25:42.276Z,15.27
2019-05-13T16:27:16.918Z,15.02
2019-05-13T16:28:52.822Z,14.90
2019-05-13T16:30:27.750Z,15.01
2019-05-13T16:32:03.045Z,15.10
2019-05-13T16:33:37.709Z,14.63
2019-05-13T16:35:13.760Z,14.63
2019-05-13T16:36:48.540Z,14.42
2019-05-13T16:38:23.757Z,14.37
2019-05-13T16:39:58.471Z,14.38
2019-05-13T16:41:33.847Z,14.39
2019-05-13T16:43:48.288Z,14.55
2019-05-13T16:45:23.598Z,14.29
2019-05-13T16:46:58.237Z,14.19
2019-05-13T16:48:33.473Z,14.14
2019-05-13T16:50:08.363Z,14.07
2019-05-13T16:51:43.663Z,14.01
2019-05-13T16:53:18.301Z,14.02
2019-05-13T16:54:53.646Z,13.96
2019-05-13T16:56:32.749Z,13.92
2019-05-13T16:58:05.196Z,13.95
2019-05-13T16:59:41.101Z,13.85
2019-05-13T17:01:16.542Z,13.89
2019-05-13T17:02:51.803Z,13.81
2019-05-13T17:04:27.173Z,13.81
2019-05-13T17:06:02.341Z,13.85
2019-05-13T17:07:37.743Z,13.71
2019-05-13T17:09:12.927Z,13.63
2019-05-13T17:10:48.149Z,13.54
2019-05-13T17:12:22.933Z,13.53
2019-05-13T17:13:58.294Z,13.55
2019-05-13T17:15:32.971Z,13.50
2019-05-13T17:17:08.307Z,13.50
2019-05-13T17:18:42.984Z,13.46
2019-05-13T17:20:18.247Z,13.42
2019-05-13T17:21:53.149Z,13.40
2019-05-13T17:23:28.435Z,13.43
2019-05-13T17:25:03.318Z,13.46
2019-05-13T17:26:41.803Z,13.46
2019-05-13T17:28:16.129Z,13.46
2019-05-13T17:29:51.681Z,13.46
2019-05-13T17:31:26.452Z,13.37
2019-05-13T17:33:02.392Z,13.37
2019-05-13T17:34:38.826Z,13.26
2019-05-13T17:36:14.012Z,13.16
2019-05-13T17:37:51.104Z,13.13
2019-05-13T17:39:25.588Z,13.08
2019-05-13T17:41:02.281Z,13.09
2019-05-13T17:42:37.349Z,13.11
2019-05-13T17:44:12.192Z,12.96
2019-05-13T17:45:47.705Z,12.96
2019-05-13T17:47:22.474Z,12.97
2019-05-13T17:48:57.772Z,12.86
2019-05-13T17:50:32.460Z,12.77
2019-05-13T17:52:07.680Z,12.77
2019-05-13T17:53:42.405Z,12.68
2019-05-13T17:55:17.616Z,12.74
2019-05-13T17:56:52.433Z,12.68
2019-05-13T17:58:27.944Z,12.57
2019-05-13T18:00:02.761Z,12.57
2019-05-13T18:01:38.270Z,12.57
2019-05-13T18:03:13.994Z,12.55
2019-05-13T18:04:49.280Z,12.49
2019-05-13T18:06:23.983Z,12.46
2019-05-13T18:08:01.671Z,12.46
2019-05-13T18:09:35.618Z,12.34
2019-05-13T18:11:11.442Z,12.34
2019-05-13T18:12:47.321Z,12.28
2019-05-13T18:14:22.539Z,12.28
2019-05-13T18:15:57.707Z,12.25
2019-05-13T18:17:32.927Z,12.29
2019-05-13T18:19:07.655Z,12.08
2019-05-13T18:20:43.058Z,12.06
2019-05-13T18:22:17.850Z,11.95
2019-05-13T18:23:53.145Z,11.95
2019-05-13T18:25:28.184Z,12.01
2019-05-13T18:27:03.471Z,11.97
2019-05-13T18:28:38.377Z,11.97
2019-05-13T18:30:13.674Z,11.95
2019-05-13T18:31:48.399Z,11.83
2019-05-13T18:33:23.571Z,11.79
2019-05-13T18:34:58.283Z,11.82
2019-05-13T18:36:33.611Z,11.82
2019-05-13T18:38:08.662Z,11.72
2019-05-13T18:39:44.005Z,11.66
2019-05-13T18:41:18.736Z,11.59
2019-05-13T18:42:56.050Z,11.59
2019-05-13T18:44:31.706Z,11.46
2019-05-13T18:46:14.812Z,11.46
2019-05-13T18:47:51.401Z,11.42
2019-05-13T18:49:26.478Z,11.42
2019-05-13T18:51:01.552Z,11.36
2019-05-13T18:52:36.483Z,11.36
2019-05-13T18:54:12.010Z,11.24
2019-05-13T18:55:47.267Z,11.24
2019-05-13T18:57:22.371Z,11.24
2019-05-13T18:58:57.263Z,11.23
2019-05-13T19:00:32.512Z,10.99
2019-05-13T19:02:07.486Z,10.99
2019-05-13T19:03:42.663Z,11.01
2019-05-13T19:05:17.684Z,10.93
2019-05-13T19:06:52.775Z,10.92
2019-05-13T19:08:27.685Z,10.95
2019-05-13T19:10:02.779Z,10.83
2019-05-13T19:11:39.023Z,10.82
2019-05-13T19:13:14.217Z,10.70
2019-05-13T19:14:51.510Z,10.70
2019-05-13T19:16:26.001Z,10.69
2019-05-13T19:18:00.975Z,10.60
2019-05-13T19:19:36.411Z,10.58
2019-05-13T19:21:11.267Z,10.60
2019-05-13T19:22:46.789Z,10.54
2019-05-13T19:24:21.930Z,10.40
2019-05-13T19:25:57.169Z,10.45
2019-05-13T19:27:32.202Z,10.42
2019-05-13T19:29:33.140Z,10.45
2019-05-13T19:31:07.805Z,10.35
2019-05-13T19:32:43.743Z,10.26
2019-05-13T19:34:18.385Z,10.26
2019-05-13T19:35:53.600Z,10.23
2019-05-13T19:37:28.328Z,10.23
2019-05-13T19:39:04.360Z,10.11
2019-05-13T19:40:42.005Z,10.06
2019-05-13T19:42:17.425Z,10.01
2019-05-13T19:43:52.101Z,10.07
2019-05-13T19:45:27.480Z,9.96
2019-05-13T19:47:02.226Z,10.05
2019-05-13T19:48:37.434Z,10.02
2019-05-13T19:50:12.295Z,9.99
2019-05-13T19:51:47.585Z,9.88
2019-05-13T19:53:22.268Z,9.78
2019-05-13T19:54:57.731Z,9.85
2019-05-13T19:56:32.531Z,9.89
2019-05-13T19:58:07.818Z,9.80
2019-05-13T19:59:42.779Z,9.71
2019-05-13T20:01:18.023Z,9.71
2019-05-13T20:02:52.652Z,9.61
2019-05-13T20:04:28.055Z,9.60
2019-05-13T20:06:02.843Z,9.57
2019-05-13T20:07:38.339Z,9.60
2019-05-13T20:09:13.125Z,9.54
2019-05-13T20:10:48.529Z,9.53
2019-05-13T20:12:23.298Z,9.42
2019-05-13T20:14:01.159Z,9.32
2019-05-13T20:15:35.136Z,9.31
2019-05-13T20:17:20.287Z,9.12
2019-05-13T20:18:55.580Z,9.21
2019-05-13T20:20:31.713Z,9.21
2019-05-13T20:22:06.992Z,9.29
2019-05-13T20:23:41.827Z,9.17
2019-05-13T20:25:16.956Z,9.15
2019-05-13T20:26:52.291Z,9.13
2019-05-13T20:28:28.433Z,9.12
2019-05-13T20:30:03.276Z,9.05
2019-05-13T20:31:38.375Z,9.05
2019-05-13T20:33:13.231Z,9.07
2019-05-13T20:34:48.256Z,9.02
2019-05-13T20:36:23.247Z,8.93
2019-05-13T20:37:58.428Z,8.86
2019-05-13T20:39:33.265Z,8.92
2019-05-13T20:41:08.294Z,8.89
2019-05-13T20:42:43.108Z,8.88
2019-05-13T20:44:18.135Z,8.83
2019-05-13T20:45:52.981Z,8.90
2019-05-13T20:47:27.995Z,8.83
2019-05-13T20:49:02.846Z,8.82
2019-05-13T20:50:37.851Z,8.83
2019-05-13T20:52:15.490Z,8.80